PWSweather.com
Personal Weather Stations
Station Observations
KIDNAMPA57
Canyon County Idaho, Nampa, ID 83687

Canyon County IdahoNampa, ID 83687

Lat: 43.587235, Lon: -116.49831979999999

Elevation: 2615

Station Type: Davis Vantage Pro 2

www.rockinglweather.com

High Low Average
Temperature 41.0°F5.0°C 29.5°F-1.4°C 34.3°F1.3°C
Dew Point 32.1°F0.1°C 23.9°F-4.5°C 28.1°F-2.2°C
Winds 13.0 mph 20.9 kmh Calm Calm 4.0 mph SW6.4 kmh SW
Wind Gusts 16.0 mph25.7 kmh -- 7.0 mph11.3 kmh
Humidity 93% 56% 79%
Pressure 29.78 in1008.5 mb 29.41 in995.9 mb -
Precipitation 0.00 in0.0 mm - -
Hour Temp Dew Point Humidity Winds Wind Gusts Pressure Precip Precip Rate Daily Precip Total
12:00 AM 38.0°F3.3°C 31.8°F-0.1°C 78% 7.0 mph WNW11.3 kmh WNW 13.0 mph20.9 kmh 29.41 in995.9 mb 0.00 in0.0 mm 0.00 in0.0 mm 0.00 in0.0 mm
12:05 AM 38.2°F3.4°C 31.6°F-0.2°C 77% 3.0 mph WSW4.8 kmh WSW 9.0 mph14.5 kmh 29.42 in996.3 mb 0.00 in0.0 mm 0.00 in0.0 mm 0.00 in0.0 mm
12:10 AM 38.1°F3.4°C 31.5°F-0.3°C 77% 5.0 mph SW8.0 kmh SW 9.0 mph14.5 kmh 29.42 in996.3 mb 0.00 in0.0 mm 0.00 in0.0 mm 0.00 in0.0 mm
12:15 AM 37.8°F3.2°C 31.6°F-0.2°C 78% 5.0 mph SW8.0 kmh SW 9.0 mph14.5 kmh 29.43 in996.6 mb 0.00 in0.0 mm 0.00 in0.0 mm 0.00 in0.0 mm
12:20 AM 37.2°F2.9°C 31.6°F-0.2°C 80% 4.0 mph SW6.4 kmh SW 6.0 mph9.7 kmh 29.44 in997.0 mb 0.00 in0.0 mm 0.00 in0.0 mm 0.00 in0.0 mm
12:25 AM 36.7°F2.6°C 31.7°F-0.2°C 82% 2.0 mph W3.2 kmh W 9.0 mph14.5 kmh 29.44 in997.0 mb 0.00 in0.0 mm 0.00 in0.0 mm 0.00 in0.0 mm
12:30 AM 36.3°F2.4°C 31.9°F-0.1°C 84% Calm Calm 9.0 mph14.5 kmh 29.44 in997.0 mb 0.00 in0.0 mm 0.00 in0.0 mm 0.00 in0.0 mm
12:35 AM 35.8°F2.1°C 31.7°F-0.2°C 85% 3.0 mph ENE4.8 kmh ENE 5.0 mph8.0 kmh 29.43 in996.6 mb 0.00 in0.0 mm 0.00 in0.0 mm 0.00 in0.0 mm
12:40 AM 35.4°F1.9°C 31.6°F-0.2°C 86% 4.0 mph E6.4 kmh E 8.0 mph12.9 kmh 29.43 in996.6 mb 0.00 in0.0 mm 0.00 in0.0 mm 0.00 in0.0 mm
12:45 AM 35.1°F1.7°C 31.6°F-0.2°C 87% 5.0 mph ENE8.0 kmh ENE 8.0 mph12.9 kmh 29.43 in996.6 mb 0.00 in0.0 mm 0.00 in0.0 mm 0.00 in0.0 mm
12:50 AM 34.8°F1.6°C 31.6°F-0.2°C 88% 7.0 mph NE11.3 kmh NE 7.0 mph11.3 kmh 29.43 in996.6 mb 0.00 in0.0 mm 0.00 in0.0 mm 0.00 in0.0 mm
12:55 AM 34.5°F1.4°C 31.6°F-0.2°C 89% 5.0 mph NE8.0 kmh NE 7.0 mph11.3 kmh 29.42 in996.3 mb 0.00 in0.0 mm 0.00 in0.0 mm 0.00 in0.0 mm
01:00 AM 34.4°F1.3°C 31.8°F-0.1°C 90% 3.0 mph ENE4.8 kmh ENE 7.0 mph11.3 kmh 29.43 in996.6 mb 0.00 in0.0 mm 0.00 in0.0 mm 0.00 in0.0 mm
01:05 AM 34.3°F1.3°C 31.7°F-0.2°C 90% 6.0 mph ENE9.7 kmh ENE 6.0 mph9.7 kmh 29.43 in996.6 mb 0.00 in0.0 mm 0.00 in0.0 mm 0.00 in0.0 mm
01:10 AM 34.3°F1.3°C 32.0°F0.0°C 91% 5.0 mph NE8.0 kmh NE 9.0 mph14.5 kmh 29.44 in997.0 mb 0.00 in0.0 mm 0.00 in0.0 mm 0.00 in0.0 mm
01:15 AM 34.2°F1.2°C 31.9°F-0.1°C 91% 5.0 mph ENE8.0 kmh ENE 9.0 mph14.5 kmh 29.44 in997.0 mb 0.00 in0.0 mm 0.00 in0.0 mm 0.00 in0.0 mm
01:20 AM 34.2°F1.2°C 31.9°F-0.1°C 91% 3.0 mph NE4.8 kmh NE 7.0 mph11.3 kmh 29.43 in996.6 mb 0.00 in0.0 mm 0.00 in0.0 mm 0.00 in0.0 mm
01:25 AM 34.1°F1.2°C 32.0°F0.0°C 92% 7.0 mph NE11.3 kmh NE 8.0 mph12.9 kmh 29.44 in997.0 mb 0.00 in0.0 mm 0.00 in0.0 mm 0.00 in0.0 mm
01:30 AM 34.1°F1.2°C 32.0°F0.0°C 92% 4.0 mph E6.4 kmh E 10.0 mph16.1 kmh 29.43 in996.6 mb 0.00 in0.0 mm 0.00 in0.0 mm 0.00 in0.0 mm
01:35 AM 34.1°F1.2°C 32.0°F0.0°C 92% 7.0 mph ENE11.3 kmh ENE 9.0 mph14.5 kmh 29.43 in996.6 mb 0.00 in0.0 mm 0.00 in0.0 mm 0.00 in0.0 mm
01:40 AM 34.1°F1.2°C 32.0°F0.0°C 92% 7.0 mph E11.3 kmh E 10.0 mph16.1 kmh 29.43 in996.6 mb 0.00 in0.0 mm 0.00 in0.0 mm 0.00 in0.0 mm
01:45 AM 34.0°F1.1°C 31.9°F-0.1°C 92% 6.0 mph NE9.7 kmh NE 10.0 mph16.1 kmh 29.43 in996.6 mb 0.00 in0.0 mm 0.00 in0.0 mm 0.00 in0.0 mm
01:50 AM 34.0°F1.1°C 31.9°F-0.1°C 92% 8.0 mph ENE12.9 kmh ENE 13.0 mph20.9 kmh 29.43 in996.6 mb 0.00 in0.0 mm 0.00 in0.0 mm 0.00 in0.0 mm
01:55 AM 33.9°F1.1°C 31.8°F-0.1°C 92% 5.0 mph NE8.0 kmh NE 13.0 mph20.9 kmh 29.43 in996.6 mb 0.00 in0.0 mm 0.00 in0.0 mm 0.00 in0.0 mm
02:00 AM 33.9°F1.1°C 32.1°F0.1°C 93% 3.0 mph ENE4.8 kmh ENE 13.0 mph20.9 kmh 29.43 in996.6 mb 0.00 in0.0 mm 0.00 in0.0 mm 0.00 in0.0 mm
02:05 AM 33.9°F1.1°C 32.1°F0.1°C 93% 7.0 mph NE11.3 kmh NE 8.0 mph12.9 kmh 29.44 in997.0 mb 0.00 in0.0 mm 0.00 in0.0 mm 0.00 in0.0 mm
02:10 AM 33.9°F1.1°C 32.1°F0.1°C 93% 3.0 mph ENE4.8 kmh ENE 8.0 mph12.9 kmh 29.44 in997.0 mb 0.00 in0.0 mm 0.00 in0.0 mm 0.00 in0.0 mm
02:15 AM 33.8°F1.0°C 32.0°F0.0°C 93% 2.0 mph ENE3.2 kmh ENE 8.0 mph12.9 kmh 29.44 in997.0 mb 0.00 in0.0 mm 0.00 in0.0 mm 0.00 in0.0 mm
02:20 AM 33.8°F1.0°C 32.0°F0.0°C 93% 2.0 mph NE3.2 kmh NE 6.0 mph9.7 kmh 29.44 in997.0 mb 0.00 in0.0 mm 0.00 in0.0 mm 0.00 in0.0 mm
02:25 AM 33.8°F1.0°C 32.0°F0.0°C 93% 3.0 mph NE4.8 kmh NE 6.0 mph9.7 kmh 29.45 in997.3 mb 0.00 in0.0 mm 0.00 in0.0 mm 0.00 in0.0 mm
02:30 AM 33.8°F1.0°C 32.0°F0.0°C 93% 6.0 mph NE9.7 kmh NE 6.0 mph9.7 kmh 29.44 in997.0 mb 0.00 in0.0 mm 0.00 in0.0 mm 0.00 in0.0 mm
02:35 AM 33.8°F1.0°C 32.0°F0.0°C 93% 3.0 mph NE4.8 kmh NE 7.0 mph11.3 kmh 29.44 in997.0 mb 0.00 in0.0 mm 0.00 in0.0 mm 0.00 in0.0 mm
02:40 AM 33.7°F0.9°C 31.9°F-0.1°C 93% Calm Calm 7.0 mph11.3 kmh 29.44 in997.0 mb 0.00 in0.0 mm 0.00 in0.0 mm 0.00 in0.0 mm
02:45 AM 33.8°F1.0°C 32.0°F0.0°C 93% 3.0 mph NE4.8 kmh NE 7.0 mph11.3 kmh 29.45 in997.3 mb 0.00 in0.0 mm 0.00 in0.0 mm 0.00 in0.0 mm
02:50 AM 33.7°F0.9°C 31.9°F-0.1°C 93% 3.0 mph NE4.8 kmh NE 6.0 mph9.7 kmh 29.45 in997.3 mb 0.00 in0.0 mm 0.00 in0.0 mm 0.00 in0.0 mm
02:55 AM 33.7°F0.9°C 31.9°F-0.1°C 93% Calm Calm 6.0 mph9.7 kmh 29.45 in997.3 mb 0.00 in0.0 mm 0.00 in0.0 mm 0.00 in0.0 mm
03:00 AM 33.7°F0.9°C 31.9°F-0.1°C 93% Calm Calm 6.0 mph9.7 kmh 29.45 in997.3 mb 0.00 in0.0 mm 0.00 in0.0 mm 0.00 in0.0 mm
03:05 AM 33.7°F0.9°C 31.9°F-0.1°C 93% Calm Calm -- 29.45 in997.3 mb 0.00 in0.0 mm 0.00 in0.0 mm 0.00 in0.0 mm
03:10 AM 33.7°F0.9°C 31.9°F-0.1°C 93% Calm Calm -- 29.45 in997.3 mb 0.00 in0.0 mm 0.00 in0.0 mm 0.00 in0.0 mm
03:15 AM 33.7°F0.9°C 31.9°F-0.1°C 93% Calm Calm -- 29.45 in997.3 mb 0.00 in0.0 mm 0.00 in0.0 mm 0.00 in0.0 mm
03:20 AM 33.7°F0.9°C 31.9°F-0.1°C 93% Calm Calm -- 29.45 in997.3 mb 0.00 in0.0 mm 0.00 in0.0 mm 0.00 in0.0 mm
03:25 AM 33.7°F0.9°C 31.9°F-0.1°C 93% Calm Calm -- 29.45 in997.3 mb 0.00 in0.0 mm 0.00 in0.0 mm 0.00 in0.0 mm
03:30 AM 33.6°F0.9°C 31.8°F-0.1°C 93% 1.0 mph NE1.6 kmh NE 3.0 mph4.8 kmh 29.44 in997.0 mb 0.00 in0.0 mm 0.00 in0.0 mm 0.00 in0.0 mm
03:35 AM 33.5°F0.8°C 31.7°F-0.2°C 93% 2.0 mph NE3.2 kmh NE 3.0 mph4.8 kmh 29.44 in997.0 mb 0.00 in0.0 mm 0.00 in0.0 mm 0.00 in0.0 mm
03:40 AM 33.3°F0.7°C 31.5°F-0.3°C 93% Calm Calm 3.0 mph4.8 kmh 29.45 in997.3 mb 0.00 in0.0 mm 0.00 in0.0 mm 0.00 in0.0 mm
03:45 AM 33.2°F0.7°C 31.4°F-0.3°C 93% Calm Calm 3.0 mph4.8 kmh 29.44 in997.0 mb 0.00 in0.0 mm 0.00 in0.0 mm 0.00 in0.0 mm
03:50 AM 33.1°F0.6°C 31.3°F-0.4°C 93% Calm Calm -- 29.44 in997.0 mb 0.00 in0.0 mm 0.00 in0.0 mm 0.00 in0.0 mm
03:55 AM 33.1°F0.6°C 31.3°F-0.4°C 93% Calm Calm -- 29.44 in997.0 mb 0.00 in0.0 mm 0.00 in0.0 mm 0.00 in0.0 mm
04:00 AM 33.1°F0.6°C 31.3°F-0.4°C 93% Calm Calm 1.0 mph1.6 kmh 29.44 in997.0 mb 0.00 in0.0 mm 0.00 in0.0 mm 0.00 in0.0 mm
04:05 AM 33.1°F0.6°C 31.3°F-0.4°C 93% Calm Calm -- 29.44 in997.0 mb 0.00 in0.0 mm 0.00 in0.0 mm 0.00 in0.0 mm
04:10 AM 33.2°F0.7°C 31.4°F-0.3°C 93% Calm Calm -- 29.45 in997.3 mb 0.00 in0.0 mm 0.00 in0.0 mm 0.00 in0.0 mm
04:15 AM 33.2°F0.7°C 31.4°F-0.3°C 93% Calm Calm -- 29.45 in997.3 mb 0.00 in0.0 mm 0.00 in0.0 mm 0.00 in0.0 mm
04:20 AM 33.2°F0.7°C 31.4°F-0.3°C 93% Calm Calm -- 29.45 in997.3 mb 0.00 in0.0 mm 0.00 in0.0 mm 0.00 in0.0 mm
04:25 AM 33.2°F0.7°C 31.4°F-0.3°C 93% Calm Calm -- 29.45 in997.3 mb 0.00 in0.0 mm 0.00 in0.0 mm 0.00 in0.0 mm
04:30 AM 33.1°F0.6°C 31.3°F-0.4°C 93% Calm Calm -- 29.45 in997.3 mb 0.00 in0.0 mm 0.00 in0.0 mm 0.00 in0.0 mm
04:35 AM 33.0°F0.6°C 31.2°F-0.4°C 93% Calm Calm -- 29.45 in997.3 mb 0.00 in0.0 mm 0.00 in0.0 mm 0.00 in0.0 mm
04:40 AM 33.0°F0.6°C 31.2°F-0.4°C 93% Calm Calm -- 29.45 in997.3 mb 0.00 in0.0 mm 0.00 in0.0 mm 0.00 in0.0 mm
04:45 AM 33.0°F0.6°C 31.2°F-0.4°C 93% Calm Calm -- 29.45 in997.3 mb 0.00 in0.0 mm 0.00 in0.0 mm 0.00 in0.0 mm
04:50 AM 33.0°F0.6°C 31.2°F-0.4°C 93% Calm Calm -- 29.46 in997.6 mb 0.00 in0.0 mm 0.00 in0.0 mm 0.00 in0.0 mm
04:55 AM 33.0°F0.6°C 31.2°F-0.4°C 93% Calm Calm -- 29.46 in997.6 mb 0.00 in0.0 mm 0.00 in0.0 mm 0.00 in0.0 mm
05:00 AM 32.9°F0.5°C 31.1°F-0.5°C 93% Calm Calm -- 29.47 in998.0 mb 0.00 in0.0 mm 0.00 in0.0 mm 0.00 in0.0 mm
05:05 AM 32.9°F0.5°C 31.1°F-0.5°C 93% Calm Calm -- 29.47 in998.0 mb 0.00 in0.0 mm 0.00 in0.0 mm 0.00 in0.0 mm
05:10 AM 32.9°F0.5°C 31.1°F-0.5°C 93% Calm Calm -- 29.47 in998.0 mb 0.00 in0.0 mm 0.00 in0.0 mm 0.00 in0.0 mm
05:15 AM 32.8°F0.4°C 31.0°F-0.6°C 93% Calm Calm -- 29.47 in998.0 mb 0.00 in0.0 mm 0.00 in0.0 mm 0.00 in0.0 mm
05:20 AM 32.7°F0.4°C 30.9°F-0.6°C 93% Calm Calm -- 29.47 in998.0 mb 0.00 in0.0 mm 0.00 in0.0 mm 0.00 in0.0 mm
05:25 AM 32.7°F0.4°C 30.9°F-0.6°C 93% Calm Calm -- 29.47 in998.0 mb 0.00 in0.0 mm 0.00 in0.0 mm 0.00 in0.0 mm
05:30 AM 32.6°F0.3°C 30.8°F-0.7°C 93% Calm Calm -- 29.48 in998.3 mb 0.00 in0.0 mm 0.00 in0.0 mm 0.00 in0.0 mm
05:35 AM 32.5°F0.3°C 30.7°F-0.7°C 93% Calm Calm -- 29.48 in998.3 mb 0.00 in0.0 mm 0.00 in0.0 mm 0.00 in0.0 mm
05:40 AM 32.5°F0.3°C 30.7°F-0.7°C 93% Calm Calm -- 29.48 in998.3 mb 0.00 in0.0 mm 0.00 in0.0 mm 0.00 in0.0 mm
05:45 AM 32.4°F0.2°C 30.6°F-0.8°C 93% Calm Calm -- 29.48 in998.3 mb 0.00 in0.0 mm 0.00 in0.0 mm 0.00 in0.0 mm
05:50 AM 32.4°F0.2°C 30.6°F-0.8°C 93% Calm Calm -- 29.48 in998.3 mb 0.00 in0.0 mm 0.00 in0.0 mm 0.00 in0.0 mm
05:55 AM 32.3°F0.2°C 30.5°F-0.8°C 93% Calm Calm -- 29.48 in998.3 mb 0.00 in0.0 mm 0.00 in0.0 mm 0.00 in0.0 mm
06:00 AM 32.2°F0.1°C 30.4°F-0.9°C 93% Calm Calm -- 29.48 in998.3 mb 0.00 in0.0 mm 0.00 in0.0 mm 0.00 in0.0 mm
06:05 AM 32.2°F0.1°C 30.4°F-0.9°C 93% Calm Calm -- 29.49 in998.6 mb 0.00 in0.0 mm 0.00 in0.0 mm 0.00 in0.0 mm
06:10 AM 32.1°F0.1°C 30.3°F-0.9°C 93% Calm Calm -- 29.49 in998.6 mb 0.00 in0.0 mm 0.00 in0.0 mm 0.00 in0.0 mm
06:15 AM 32.1°F0.1°C 30.3°F-0.9°C 93% Calm Calm -- 29.49 in998.6 mb 0.00 in0.0 mm 0.00 in0.0 mm 0.00 in0.0 mm
06:20 AM 32.0°F0.0°C 30.2°F-1.0°C 93% Calm Calm -- 29.49 in998.6 mb 0.00 in0.0 mm 0.00 in0.0 mm 0.00 in0.0 mm
06:25 AM 32.0°F0.0°C 30.2°F-1.0°C 93% Calm Calm -- 29.49 in998.6 mb 0.00 in0.0 mm 0.00 in0.0 mm 0.00 in0.0 mm
06:30 AM 31.9°F-0.1°C 30.1°F-1.1°C 93% Calm Calm -- 29.49 in998.6 mb 0.00 in0.0 mm 0.00 in0.0 mm 0.00 in0.0 mm
06:35 AM 31.9°F-0.1°C 30.1°F-1.1°C 93% Calm Calm -- 29.49 in998.6 mb 0.00 in0.0 mm 0.00 in0.0 mm 0.00 in0.0 mm
06:40 AM 31.8°F-0.1°C 30.0°F-1.1°C 93% Calm Calm -- 29.49 in998.6 mb 0.00 in0.0 mm 0.00 in0.0 mm 0.00 in0.0 mm
06:45 AM 31.8°F-0.1°C 30.0°F-1.1°C 93% Calm Calm -- 29.50 in999.0 mb 0.00 in0.0 mm 0.00 in0.0 mm 0.00 in0.0 mm
06:50 AM 31.8°F-0.1°C 30.0°F-1.1°C 93% Calm Calm -- 29.50 in999.0 mb 0.00 in0.0 mm 0.00 in0.0 mm 0.00 in0.0 mm
06:55 AM 31.8°F-0.1°C 30.0°F-1.1°C 93% Calm Calm -- 29.50 in999.0 mb 0.00 in0.0 mm 0.00 in0.0 mm 0.00 in0.0 mm
07:00 AM 31.7°F-0.2°C 29.9°F-1.2°C 93% Calm Calm -- 29.51 in999.3 mb 0.00 in0.0 mm 0.00 in0.0 mm 0.00 in0.0 mm
07:05 AM 31.6°F-0.2°C 29.8°F-1.2°C 93% Calm Calm -- 29.51 in999.3 mb 0.00 in0.0 mm 0.00 in0.0 mm 0.00 in0.0 mm
07:10 AM 31.6°F-0.2°C 29.8°F-1.2°C 93% Calm Calm -- 29.51 in999.3 mb 0.00 in0.0 mm 0.00 in0.0 mm 0.00 in0.0 mm
07:15 AM 31.5°F-0.3°C 29.7°F-1.3°C 93% Calm Calm -- 29.51 in999.3 mb 0.00 in0.0 mm 0.00 in0.0 mm 0.00 in0.0 mm
07:20 AM 31.4°F-0.3°C 29.6°F-1.3°C 93% Calm Calm -- 29.51 in999.3 mb 0.00 in0.0 mm 0.00 in0.0 mm 0.00 in0.0 mm
07:25 AM 31.3°F-0.4°C 29.5°F-1.4°C 93% Calm Calm -- 29.52 in999.7 mb 0.00 in0.0 mm 0.00 in0.0 mm 0.00 in0.0 mm
07:30 AM 31.2°F-0.4°C 29.4°F-1.4°C 93% Calm Calm -- 29.52 in999.7 mb 0.00 in0.0 mm 0.00 in0.0 mm 0.00 in0.0 mm
07:35 AM 31.1°F-0.5°C 29.3°F-1.5°C 93% Calm Calm -- 29.52 in999.7 mb 0.00 in0.0 mm 0.00 in0.0 mm 0.00 in0.0 mm
07:40 AM 31.1°F-0.5°C 29.3°F-1.5°C 93% Calm Calm -- 29.52 in999.7 mb 0.00 in0.0 mm 0.00 in0.0 mm 0.00 in0.0 mm
07:45 AM 31.0°F-0.6°C 29.2°F-1.6°C 93% Calm Calm -- 29.52 in999.7 mb 0.00 in0.0 mm 0.00 in0.0 mm 0.00 in0.0 mm
07:50 AM 30.9°F-0.6°C 29.1°F-1.6°C 93% Calm Calm -- 29.52 in999.7 mb 0.00 in0.0 mm 0.00 in0.0 mm 0.00 in0.0 mm
07:55 AM 30.9°F-0.6°C 29.1°F-1.6°C 93% Calm Calm -- 29.52 in999.7 mb 0.00 in0.0 mm 0.00 in0.0 mm 0.00 in0.0 mm
08:00 AM 30.8°F-0.7°C 29.0°F-1.7°C 93% Calm Calm -- 29.52 in999.7 mb 0.00 in0.0 mm 0.00 in0.0 mm 0.00 in0.0 mm
08:05 AM 30.8°F-0.7°C 29.0°F-1.7°C 93% Calm Calm -- 29.52 in999.7 mb 0.00 in0.0 mm 0.00 in0.0 mm 0.00 in0.0 mm
08:10 AM 30.7°F-0.7°C 28.9°F-1.7°C 93% Calm Calm -- 29.53 in1000.0 mb 0.00 in0.0 mm 0.00 in0.0 mm 0.00 in0.0 mm
08:15 AM 30.7°F-0.7°C 28.9°F-1.7°C 93% Calm Calm -- 29.53 in1000.0 mb 0.00 in0.0 mm 0.00 in0.0 mm 0.00 in0.0 mm
08:20 AM 30.9°F-0.6°C 29.1°F-1.6°C 93% 3.0 mph NW4.8 kmh NW 4.0 mph6.4 kmh 29.53 in1000.0 mb 0.00 in0.0 mm 0.00 in0.0 mm 0.00 in0.0 mm
08:25 AM 31.1°F-0.5°C 29.3°F-1.5°C 93% 2.0 mph WNW3.2 kmh WNW 4.0 mph6.4 kmh 29.53 in1000.0 mb 0.00 in0.0 mm 0.00 in0.0 mm 0.00 in0.0 mm
08:30 AM 31.3°F-0.4°C 29.5°F-1.4°C 93% 4.0 mph WNW6.4 kmh WNW 7.0 mph11.3 kmh 29.53 in1000.0 mb 0.00 in0.0 mm 0.00 in0.0 mm 0.00 in0.0 mm
08:35 AM 31.4°F-0.3°C 29.6°F-1.3°C 93% 5.0 mph NW8.0 kmh NW 6.0 mph9.7 kmh 29.54 in1000.3 mb 0.00 in0.0 mm 0.00 in0.0 mm 0.00 in0.0 mm
08:40 AM 31.7°F-0.2°C 29.9°F-1.2°C 93% 4.0 mph NW6.4 kmh NW 9.0 mph14.5 kmh 29.54 in1000.3 mb 0.00 in0.0 mm 0.00 in0.0 mm 0.00 in0.0 mm
08:45 AM 31.9°F-0.1°C 30.1°F-1.1°C 93% 7.0 mph NW11.3 kmh NW 9.0 mph14.5 kmh 29.54 in1000.3 mb 0.00 in0.0 mm 0.00 in0.0 mm 0.00 in0.0 mm
08:50 AM 32.0°F0.0°C 29.9°F-1.2°C 92% 4.0 mph WNW6.4 kmh WNW 12.0 mph19.3 kmh 29.54 in1000.3 mb 0.00 in0.0 mm 0.00 in0.0 mm 0.00 in0.0 mm
08:55 AM 32.0°F0.0°C 29.9°F-1.2°C 92% 5.0 mph NW8.0 kmh NW 12.0 mph19.3 kmh 29.54 in1000.3 mb 0.00 in0.0 mm 0.00 in0.0 mm 0.00 in0.0 mm
09:00 AM 32.1°F0.1°C 29.8°F-1.2°C 91% 5.0 mph NW8.0 kmh NW 12.0 mph19.3 kmh 29.55 in1000.7 mb 0.00 in0.0 mm 0.00 in0.0 mm 0.00 in0.0 mm
09:05 AM 32.1°F0.1°C 29.2°F-1.6°C 89% 5.0 mph NW8.0 kmh NW 9.0 mph14.5 kmh 29.55 in1000.7 mb 0.00 in0.0 mm 0.00 in0.0 mm 0.00 in0.0 mm
09:10 AM 32.2°F0.1°C 29.1°F-1.6°C 88% 4.0 mph NW6.4 kmh NW 9.0 mph14.5 kmh 29.56 in1001.0 mb 0.00 in0.0 mm 0.00 in0.0 mm 0.00 in0.0 mm
09:15 AM 32.4°F0.2°C 28.7°F-1.8°C 86% 5.0 mph NW8.0 kmh NW 9.0 mph14.5 kmh 29.56 in1001.0 mb 0.00 in0.0 mm 0.00 in0.0 mm 0.00 in0.0 mm
09:20 AM 32.6°F0.3°C 28.6°F-1.9°C 85% 5.0 mph NW8.0 kmh NW 8.0 mph12.9 kmh 29.56 in1001.0 mb 0.00 in0.0 mm 0.00 in0.0 mm 0.00 in0.0 mm
09:25 AM 32.7°F0.4°C 28.4°F-2.0°C 84% 5.0 mph W8.0 kmh W 8.0 mph12.9 kmh 29.56 in1001.0 mb 0.00 in0.0 mm 0.00 in0.0 mm 0.00 in0.0 mm
09:30 AM 32.8°F0.4°C 28.2°F-2.1°C 83% 4.0 mph NW6.4 kmh NW 9.0 mph14.5 kmh 29.57 in1001.4 mb 0.00 in0.0 mm 0.00 in0.0 mm 0.00 in0.0 mm
09:35 AM 32.9°F0.5°C 28.0°F-2.2°C 82% 4.0 mph WNW6.4 kmh WNW 9.0 mph14.5 kmh 29.57 in1001.4 mb 0.00 in0.0 mm 0.00 in0.0 mm 0.00 in0.0 mm
09:40 AM 32.9°F0.5°C 28.0°F-2.2°C 82% 2.0 mph NW3.2 kmh NW 9.0 mph14.5 kmh 29.57 in1001.4 mb 0.00 in0.0 mm 0.00 in0.0 mm 0.00 in0.0 mm
09:45 AM 33.0°F0.6°C 27.8°F-2.3°C 81% 5.0 mph WNW8.0 kmh WNW 10.0 mph16.1 kmh 29.58 in1001.7 mb 0.00 in0.0 mm 0.00 in0.0 mm 0.00 in0.0 mm
09:50 AM 33.1°F0.6°C 27.9°F-2.3°C 81% 6.0 mph WNW9.7 kmh WNW 7.0 mph11.3 kmh 29.58 in1001.7 mb 0.00 in0.0 mm 0.00 in0.0 mm 0.00 in0.0 mm
09:55 AM 33.2°F0.7°C 27.7°F-2.4°C 80% 4.0 mph NW6.4 kmh NW 8.0 mph12.9 kmh 29.58 in1001.7 mb 0.00 in0.0 mm 0.00 in0.0 mm 0.00 in0.0 mm
10:00 AM 33.4°F0.8°C 27.6°F-2.4°C 79% 10.0 mph NW16.1 kmh NW 10.0 mph16.1 kmh 29.58 in1001.7 mb 0.00 in0.0 mm 0.00 in0.0 mm 0.00 in0.0 mm
10:05 AM 33.6°F0.9°C 27.8°F-2.3°C 79% 8.0 mph WNW12.9 kmh WNW 12.0 mph19.3 kmh 29.58 in1001.7 mb 0.00 in0.0 mm 0.00 in0.0 mm 0.00 in0.0 mm
10:10 AM 33.7°F0.9°C 27.9°F-2.3°C 79% 5.0 mph NW8.0 kmh NW 12.0 mph19.3 kmh 29.58 in1001.7 mb 0.00 in0.0 mm 0.00 in0.0 mm 0.00 in0.0 mm
10:15 AM 33.7°F0.9°C 27.9°F-2.3°C 79% 6.0 mph NNW9.7 kmh NNW 12.0 mph19.3 kmh 29.59 in1002.0 mb 0.00 in0.0 mm 0.00 in0.0 mm 0.00 in0.0 mm
10:20 AM 33.8°F1.0°C 27.7°F-2.4°C 78% 6.0 mph WNW9.7 kmh WNW 12.0 mph19.3 kmh 29.59 in1002.0 mb 0.00 in0.0 mm 0.00 in0.0 mm 0.00 in0.0 mm
10:25 AM 33.9°F1.1°C 27.5°F-2.5°C 77% 7.0 mph NW11.3 kmh NW 12.0 mph19.3 kmh 29.59 in1002.0 mb 0.00 in0.0 mm 0.00 in0.0 mm 0.00 in0.0 mm
10:30 AM 33.9°F1.1°C 27.8°F-2.3°C 78% 5.0 mph NW8.0 kmh NW 12.0 mph19.3 kmh 29.59 in1002.0 mb 0.00 in0.0 mm 0.00 in0.0 mm 0.00 in0.0 mm
10:35 AM 33.9°F1.1°C 27.5°F-2.5°C 77% 7.0 mph NW11.3 kmh NW 9.0 mph14.5 kmh 29.59 in1002.0 mb 0.00 in0.0 mm 0.00 in0.0 mm 0.00 in0.0 mm
10:40 AM 34.1°F1.2°C 27.7°F-2.4°C 77% 4.0 mph NW6.4 kmh NW 9.0 mph14.5 kmh 29.60 in1002.4 mb 0.00 in0.0 mm 0.00 in0.0 mm 0.00 in0.0 mm
10:45 AM 34.5°F1.4°C 28.1°F-2.2°C 77% 5.0 mph NW8.0 kmh NW 9.0 mph14.5 kmh 29.60 in1002.4 mb 0.00 in0.0 mm 0.00 in0.0 mm 0.00 in0.0 mm
10:50 AM 35.0°F1.7°C 28.5°F-1.9°C 77% 4.0 mph NW6.4 kmh NW 9.0 mph14.5 kmh 29.60 in1002.4 mb 0.00 in0.0 mm 0.00 in0.0 mm 0.00 in0.0 mm
10:55 AM 35.8°F2.1°C 29.6°F-1.3°C 78% 3.0 mph N4.8 kmh N 9.0 mph14.5 kmh 29.60 in1002.4 mb 0.00 in0.0 mm 0.00 in0.0 mm 0.00 in0.0 mm
11:00 AM 36.1°F2.3°C 29.9°F-1.2°C 78% 5.0 mph N8.0 kmh N 9.0 mph14.5 kmh 29.60 in1002.4 mb 0.00 in0.0 mm 0.00 in0.0 mm 0.00 in0.0 mm
11:05 AM 36.2°F2.3°C 29.4°F-1.4°C 76% 7.0 mph NW11.3 kmh NW 8.0 mph12.9 kmh 29.60 in1002.4 mb 0.00 in0.0 mm 0.00 in0.0 mm 0.00 in0.0 mm
11:10 AM 36.2°F2.3°C 29.1°F-1.6°C 75% 3.0 mph NW4.8 kmh NW 8.0 mph12.9 kmh 29.61 in1002.7 mb 0.00 in0.0 mm 0.00 in0.0 mm 0.00 in0.0 mm
11:15 AM 36.4°F2.4°C 29.6°F-1.3°C 76% 4.0 mph NW6.4 kmh NW 10.0 mph16.1 kmh 29.61 in1002.7 mb 0.00 in0.0 mm 0.00 in0.0 mm 0.00 in0.0 mm
11:20 AM 36.2°F2.3°C 29.1°F-1.6°C 75% 5.0 mph NNW8.0 kmh NNW 10.0 mph16.1 kmh 29.61 in1002.7 mb 0.00 in0.0 mm 0.00 in0.0 mm 0.00 in0.0 mm
11:25 AM 36.6°F2.6°C 29.8°F-1.2°C 76% 6.0 mph NW9.7 kmh NW 10.0 mph16.1 kmh 29.61 in1002.7 mb 0.00 in0.0 mm 0.00 in0.0 mm 0.00 in0.0 mm
11:30 AM 36.8°F2.7°C 29.6°F-1.3°C 75% 8.0 mph NNW12.9 kmh NNW 11.0 mph17.7 kmh 29.61 in1002.7 mb 0.00 in0.0 mm 0.00 in0.0 mm 0.00 in0.0 mm
11:35 AM 37.0°F2.8°C 29.5°F-1.4°C 74% 6.0 mph NW9.7 kmh NW 11.0 mph17.7 kmh 29.61 in1002.7 mb 0.00 in0.0 mm 0.00 in0.0 mm 0.00 in0.0 mm
11:40 AM 37.1°F2.8°C 29.3°F-1.5°C 73% 8.0 mph N12.9 kmh N 11.0 mph17.7 kmh 29.61 in1002.7 mb 0.00 in0.0 mm 0.00 in0.0 mm 0.00 in0.0 mm
11:45 AM 37.7°F3.2°C 30.2°F-1.0°C 74% 5.0 mph NNW8.0 kmh NNW 11.0 mph17.7 kmh 29.62 in1003.0 mb 0.00 in0.0 mm 0.00 in0.0 mm 0.00 in0.0 mm
11:50 AM 37.8°F3.2°C 29.6°F-1.3°C 72% 8.0 mph NW12.9 kmh NW 9.0 mph14.5 kmh 29.62 in1003.0 mb 0.00 in0.0 mm 0.00 in0.0 mm 0.00 in0.0 mm
11:55 AM 37.8°F3.2°C 29.6°F-1.3°C 72% 6.0 mph NW9.7 kmh NW 10.0 mph16.1 kmh 29.62 in1003.0 mb 0.00 in0.0 mm 0.00 in0.0 mm 0.00 in0.0 mm
12:00 PM 37.6°F3.1°C 27.7°F-2.4°C 67% 9.0 mph NW14.5 kmh NW 13.0 mph20.9 kmh 29.62 in1003.0 mb 0.00 in0.0 mm 0.00 in0.0 mm 0.00 in0.0 mm
12:05 PM 37.1°F2.8°C 27.2°F-2.7°C 67% 8.0 mph NW12.9 kmh NW 11.0 mph17.7 kmh 29.62 in1003.0 mb 0.00 in0.0 mm 0.00 in0.0 mm 0.00 in0.0 mm
12:10 PM 37.0°F2.8°C 27.4°F-2.6°C 68% 5.0 mph NW8.0 kmh NW 11.0 mph17.7 kmh 29.62 in1003.0 mb 0.00 in0.0 mm 0.00 in0.0 mm 0.00 in0.0 mm
12:15 PM 37.4°F3.0°C 27.8°F-2.3°C 68% 8.0 mph WNW12.9 kmh WNW 11.0 mph17.7 kmh 29.62 in1003.0 mb 0.00 in0.0 mm 0.00 in0.0 mm 0.00 in0.0 mm
12:20 PM 37.6°F3.1°C 28.0°F-2.2°C 68% 6.0 mph W9.7 kmh W 13.0 mph20.9 kmh 29.62 in1003.0 mb 0.00 in0.0 mm 0.00 in0.0 mm 0.00 in0.0 mm
12:25 PM 38.1°F3.4°C 28.1°F-2.2°C 67% 6.0 mph NW9.7 kmh NW 13.0 mph20.9 kmh 29.62 in1003.0 mb 0.00 in0.0 mm 0.00 in0.0 mm 0.00 in0.0 mm
12:30 PM 39.0°F3.9°C 30.4°F-0.9°C 71% 7.0 mph NW11.3 kmh NW 13.0 mph20.9 kmh 29.62 in1003.0 mb 0.00 in0.0 mm 0.00 in0.0 mm 0.00 in0.0 mm
12:35 PM 38.8°F3.8°C 29.2°F-1.6°C 68% 8.0 mph NW12.9 kmh NW 9.0 mph14.5 kmh 29.62 in1003.0 mb 0.00 in0.0 mm 0.00 in0.0 mm 0.00 in0.0 mm
12:40 PM 38.9°F3.8°C 28.9°F-1.7°C 67% 6.0 mph WSW9.7 kmh WSW 11.0 mph17.7 kmh 29.61 in1002.7 mb 0.00 in0.0 mm 0.00 in0.0 mm 0.00 in0.0 mm
12:45 PM 39.0°F3.9°C 29.0°F-1.7°C 67% 5.0 mph W8.0 kmh W 11.0 mph17.7 kmh 29.61 in1002.7 mb 0.00 in0.0 mm 0.00 in0.0 mm 0.00 in0.0 mm
12:50 PM 40.2°F4.6°C 30.1°F-1.1°C 67% 6.0 mph WNW9.7 kmh WNW 9.0 mph14.5 kmh 29.61 in1002.7 mb 0.00 in0.0 mm 0.00 in0.0 mm 0.00 in0.0 mm
12:55 PM 41.0°F5.0°C 30.2°F-1.0°C 65% 13.0 mph WNW20.9 kmh WNW 15.0 mph24.1 kmh 29.61 in1002.7 mb 0.00 in0.0 mm 0.00 in0.0 mm 0.00 in0.0 mm
01:00 PM 40.0°F4.4°C 29.6°F-1.3°C 66% 4.0 mph WNW6.4 kmh WNW 15.0 mph24.1 kmh 29.61 in1002.7 mb 0.00 in0.0 mm 0.00 in0.0 mm 0.00 in0.0 mm
01:05 PM 40.5°F4.7°C 28.9°F-1.7°C 63% 12.0 mph NW19.3 kmh NW 12.0 mph19.3 kmh 29.61 in1002.7 mb 0.00 in0.0 mm 0.00 in0.0 mm 0.00 in0.0 mm
01:10 PM 39.3°F4.1°C 27.4°F-2.6°C 62% 6.0 mph NW9.7 kmh NW 15.0 mph24.1 kmh 29.61 in1002.7 mb 0.00 in0.0 mm 0.00 in0.0 mm 0.00 in0.0 mm
01:15 PM 38.7°F3.7°C 28.0°F-2.2°C 65% 9.0 mph WNW14.5 kmh WNW 15.0 mph24.1 kmh 29.61 in1002.7 mb 0.00 in0.0 mm 0.00 in0.0 mm 0.00 in0.0 mm
01:20 PM 38.8°F3.8°C 27.7°F-2.4°C 64% 3.0 mph NW4.8 kmh NW 10.0 mph16.1 kmh 29.61 in1002.7 mb 0.00 in0.0 mm 0.00 in0.0 mm 0.00 in0.0 mm
01:25 PM 38.8°F3.8°C 28.1°F-2.2°C 65% 7.0 mph NW11.3 kmh NW 13.0 mph20.9 kmh 29.61 in1002.7 mb 0.00 in0.0 mm 0.00 in0.0 mm 0.00 in0.0 mm
01:30 PM 39.5°F4.2°C 28.7°F-1.8°C 65% 2.0 mph NW3.2 kmh NW 13.0 mph20.9 kmh 29.61 in1002.7 mb 0.00 in0.0 mm 0.00 in0.0 mm 0.00 in0.0 mm
01:35 PM 39.5°F4.2°C 28.7°F-1.8°C 65% 6.0 mph WNW9.7 kmh WNW 10.0 mph16.1 kmh 29.61 in1002.7 mb 0.00 in0.0 mm 0.00 in0.0 mm 0.00 in0.0 mm
01:40 PM 39.1°F3.9°C 28.0°F-2.2°C 64% 5.0 mph NW8.0 kmh NW 10.0 mph16.1 kmh 29.61 in1002.7 mb 0.00 in0.0 mm 0.00 in0.0 mm 0.00 in0.0 mm
01:45 PM 39.7°F4.3°C 28.2°F-2.1°C 63% 9.0 mph NNW14.5 kmh NNW 13.0 mph20.9 kmh 29.61 in1002.7 mb 0.00 in0.0 mm 0.00 in0.0 mm 0.00 in0.0 mm
01:50 PM 39.5°F4.2°C 27.6°F-2.4°C 62% 7.0 mph NW11.3 kmh NW 12.0 mph19.3 kmh 29.61 in1002.7 mb 0.00 in0.0 mm 0.00 in0.0 mm 0.00 in0.0 mm
01:55 PM 38.9°F3.8°C 27.8°F-2.3°C 64% 3.0 mph NW4.8 kmh NW 12.0 mph19.3 kmh 29.61 in1002.7 mb 0.00 in0.0 mm 0.00 in0.0 mm 0.00 in0.0 mm
02:00 PM 39.2°F4.0°C 27.7°F-2.4°C 63% 4.0 mph WNW6.4 kmh WNW 12.0 mph19.3 kmh 29.61 in1002.7 mb 0.00 in0.0 mm 0.00 in0.0 mm 0.00 in0.0 mm
02:05 PM 38.8°F3.8°C 26.9°F-2.8°C 62% 5.0 mph NW8.0 kmh NW 9.0 mph14.5 kmh 29.61 in1002.7 mb 0.00 in0.0 mm 0.00 in0.0 mm 0.00 in0.0 mm
02:10 PM 39.0°F3.9°C 26.7°F-2.9°C 61% 7.0 mph WNW11.3 kmh WNW 13.0 mph20.9 kmh 29.62 in1003.0 mb 0.00 in0.0 mm 0.00 in0.0 mm 0.00 in0.0 mm
02:15 PM 38.8°F3.8°C 26.1°F-3.3°C 60% 7.0 mph WNW11.3 kmh WNW 13.0 mph20.9 kmh 29.62 in1003.0 mb 0.00 in0.0 mm 0.00 in0.0 mm 0.00 in0.0 mm
02:20 PM 38.3°F3.5°C 26.8°F-2.9°C 63% 7.0 mph W11.3 kmh W 12.0 mph19.3 kmh 29.62 in1003.0 mb 0.00 in0.0 mm 0.00 in0.0 mm 0.00 in0.0 mm
02:25 PM 38.0°F3.3°C 26.2°F-3.2°C 62% 7.0 mph WNW11.3 kmh WNW 13.0 mph20.9 kmh 29.62 in1003.0 mb 0.00 in0.0 mm 0.00 in0.0 mm 0.00 in0.0 mm
02:30 PM 37.8°F3.2°C 26.4°F-3.1°C 63% 10.0 mph WNW16.1 kmh WNW 13.0 mph20.9 kmh 29.63 in1003.4 mb 0.00 in0.0 mm 0.00 in0.0 mm 0.00 in0.0 mm
02:35 PM 37.7°F3.2°C 26.3°F-3.2°C 63% 3.0 mph WNW4.8 kmh WNW 10.0 mph16.1 kmh 29.63 in1003.4 mb 0.00 in0.0 mm 0.00 in0.0 mm 0.00 in0.0 mm
02:40 PM 38.1°F3.4°C 26.3°F-3.2°C 62% 8.0 mph WSW12.9 kmh WSW 13.0 mph20.9 kmh 29.63 in1003.4 mb 0.00 in0.0 mm 0.00 in0.0 mm 0.00 in0.0 mm
02:45 PM 37.8°F3.2°C 25.6°F-3.6°C 61% 5.0 mph W8.0 kmh W 13.0 mph20.9 kmh 29.63 in1003.4 mb 0.00 in0.0 mm 0.00 in0.0 mm 0.00 in0.0 mm
02:50 PM 38.0°F3.3°C 25.8°F-3.4°C 61% 5.0 mph W8.0 kmh W 10.0 mph16.1 kmh 29.63 in1003.4 mb 0.00 in0.0 mm 0.00 in0.0 mm 0.00 in0.0 mm
02:55 PM 38.8°F3.8°C 26.5°F-3.1°C 61% 7.0 mph N11.3 kmh N 12.0 mph19.3 kmh 29.63 in1003.4 mb 0.00 in0.0 mm 0.00 in0.0 mm 0.00 in0.0 mm
03:00 PM 39.8°F4.3°C 26.2°F-3.2°C 58% 8.0 mph W12.9 kmh W 16.0 mph25.7 kmh 29.63 in1003.4 mb 0.00 in0.0 mm 0.00 in0.0 mm 0.00 in0.0 mm
03:05 PM 39.7°F4.3°C 26.2°F-3.2°C 58% 11.0 mph NW17.7 kmh NW 13.0 mph20.9 kmh 29.63 in1003.4 mb 0.00 in0.0 mm 0.00 in0.0 mm 0.00 in0.0 mm
03:10 PM 38.9°F3.8°C 25.4°F-3.7°C 58% 9.0 mph NW14.5 kmh NW 13.0 mph20.9 kmh 29.63 in1003.4 mb 0.00 in0.0 mm 0.00 in0.0 mm 0.00 in0.0 mm
03:15 PM 38.7°F3.7°C 26.4°F-3.1°C 61% 7.0 mph WNW11.3 kmh WNW 13.0 mph20.9 kmh 29.63 in1003.4 mb 0.00 in0.0 mm 0.00 in0.0 mm 0.00 in0.0 mm
03:20 PM 38.6°F3.7°C 25.9°F-3.4°C 60% 6.0 mph WNW9.7 kmh WNW 12.0 mph19.3 kmh 29.63 in1003.4 mb 0.00 in0.0 mm 0.00 in0.0 mm 0.00 in0.0 mm
03:25 PM 38.2°F3.4°C 25.6°F-3.6°C 60% 7.0 mph W11.3 kmh W 12.0 mph19.3 kmh 29.63 in1003.4 mb 0.00 in0.0 mm 0.00 in0.0 mm 0.00 in0.0 mm
03:30 PM 38.2°F3.4°C 25.6°F-3.6°C 60% 5.0 mph W8.0 kmh W 12.0 mph19.3 kmh 29.63 in1003.4 mb 0.00 in0.0 mm 0.00 in0.0 mm 0.00 in0.0 mm
03:35 PM 38.9°F3.8°C 26.2°F-3.2°C 60% 6.0 mph WNW9.7 kmh WNW 10.0 mph16.1 kmh 29.63 in1003.4 mb 0.00 in0.0 mm 0.00 in0.0 mm 0.00 in0.0 mm
03:40 PM 39.7°F4.3°C 25.3°F-3.7°C 56% 9.0 mph NNW14.5 kmh NNW 11.0 mph17.7 kmh 29.63 in1003.4 mb 0.00 in0.0 mm 0.00 in0.0 mm 0.00 in0.0 mm
03:45 PM 39.9°F4.4°C 27.2°F-2.7°C 60% 3.0 mph NW4.8 kmh NW 11.0 mph17.7 kmh 29.64 in1003.7 mb 0.00 in0.0 mm 0.00 in0.0 mm 0.00 in0.0 mm
03:50 PM 39.7°F4.3°C 25.7°F-3.5°C 57% 4.0 mph WNW6.4 kmh WNW 9.0 mph14.5 kmh 29.64 in1003.7 mb 0.00 in0.0 mm 0.00 in0.0 mm 0.00 in0.0 mm
03:55 PM 39.2°F4.0°C 26.5°F-3.1°C 60% 6.0 mph NW9.7 kmh NW 9.0 mph14.5 kmh 29.64 in1003.7 mb 0.00 in0.0 mm 0.00 in0.0 mm 0.00 in0.0 mm
04:00 PM 38.9°F3.8°C 26.6°F-3.0°C 61% 7.0 mph NW11.3 kmh NW 9.0 mph14.5 kmh 29.65 in1004.1 mb 0.00 in0.0 mm 0.00 in0.0 mm 0.00 in0.0 mm
04:05 PM 38.5°F3.6°C 25.8°F-3.4°C 60% 5.0 mph WNW8.0 kmh WNW 11.0 mph17.7 kmh 29.65 in1004.1 mb 0.00 in0.0 mm 0.00 in0.0 mm 0.00 in0.0 mm
04:10 PM 38.2°F3.4°C 25.6°F-3.6°C 60% 8.0 mph NW12.9 kmh NW 12.0 mph19.3 kmh 29.65 in1004.1 mb 0.00 in0.0 mm 0.00 in0.0 mm 0.00 in0.0 mm
04:15 PM 38.0°F3.3°C 25.8°F-3.4°C 61% 6.0 mph NW9.7 kmh NW 12.0 mph19.3 kmh 29.65 in1004.1 mb 0.00 in0.0 mm 0.00 in0.0 mm 0.00 in0.0 mm
04:20 PM 37.8°F3.2°C 25.6°F-3.6°C 61% 6.0 mph NW9.7 kmh NW 11.0 mph17.7 kmh 29.65 in1004.1 mb 0.00 in0.0 mm 0.00 in0.0 mm 0.00 in0.0 mm
04:25 PM 38.0°F3.3°C 25.4°F-3.7°C 60% 4.0 mph NW6.4 kmh NW 11.0 mph17.7 kmh 29.65 in1004.1 mb 0.00 in0.0 mm 0.00 in0.0 mm 0.00 in0.0 mm
04:30 PM 37.9°F3.3°C 24.9°F-3.9°C 59% 6.0 mph NW9.7 kmh NW 11.0 mph17.7 kmh 29.66 in1004.4 mb 0.00 in0.0 mm 0.00 in0.0 mm 0.00 in0.0 mm
04:35 PM 37.9°F3.3°C 25.3°F-3.7°C 60% 8.0 mph NW12.9 kmh NW 9.0 mph14.5 kmh 29.66 in1004.4 mb 0.00 in0.0 mm 0.00 in0.0 mm 0.00 in0.0 mm
04:40 PM 37.9°F3.3°C 24.9°F-3.9°C 59% 6.0 mph NNW9.7 kmh NNW 10.0 mph16.1 kmh 29.65 in1004.1 mb 0.00 in0.0 mm 0.00 in0.0 mm 0.00 in0.0 mm
04:45 PM 37.8°F3.2°C 24.8°F-4.0°C 59% 6.0 mph NNW9.7 kmh NNW 10.0 mph16.1 kmh 29.66 in1004.4 mb 0.00 in0.0 mm 0.00 in0.0 mm 0.00 in0.0 mm
04:50 PM 37.7°F3.2°C 24.7°F-4.1°C 59% 5.0 mph NW8.0 kmh NW 11.0 mph17.7 kmh 29.66 in1004.4 mb 0.00 in0.0 mm 0.00 in0.0 mm 0.00 in0.0 mm
04:55 PM 37.6°F3.1°C 24.6°F-4.1°C 59% 8.0 mph NW12.9 kmh NW 13.0 mph20.9 kmh 29.66 in1004.4 mb 0.00 in0.0 mm 0.00 in0.0 mm 0.00 in0.0 mm
05:00 PM 37.5°F3.1°C 24.5°F-4.2°C 59% 5.0 mph NW8.0 kmh NW 13.0 mph20.9 kmh 29.66 in1004.4 mb 0.00 in0.0 mm 0.00 in0.0 mm 0.00 in0.0 mm
05:05 PM 37.4°F3.0°C 24.8°F-4.0°C 60% 6.0 mph WNW9.7 kmh WNW 11.0 mph17.7 kmh 29.66 in1004.4 mb 0.00 in0.0 mm 0.00 in0.0 mm 0.00 in0.0 mm
05:10 PM 37.4°F3.0°C 24.4°F-4.2°C 59% 7.0 mph WNW11.3 kmh WNW 11.0 mph17.7 kmh 29.66 in1004.4 mb 0.00 in0.0 mm 0.00 in0.0 mm 0.00 in0.0 mm
05:15 PM 37.3°F2.9°C 24.7°F-4.1°C 60% 7.0 mph NW11.3 kmh NW 12.0 mph19.3 kmh 29.66 in1004.4 mb 0.00 in0.0 mm 0.00 in0.0 mm 0.00 in0.0 mm
05:20 PM 37.2°F2.9°C 25.8°F-3.4°C 63% 7.0 mph N11.3 kmh N 10.0 mph16.1 kmh 29.66 in1004.4 mb 0.00 in0.0 mm 0.00 in0.0 mm 0.00 in0.0 mm
05:25 PM 37.0°F2.8°C 25.6°F-3.6°C 63% 6.0 mph NW9.7 kmh NW 12.0 mph19.3 kmh 29.67 in1004.7 mb 0.00 in0.0 mm 0.00 in0.0 mm 0.00 in0.0 mm
05:30 PM 36.9°F2.7°C 25.9°F-3.4°C 64% 9.0 mph NW14.5 kmh NW 12.0 mph19.3 kmh 29.67 in1004.7 mb 0.00 in0.0 mm 0.00 in0.0 mm 0.00 in0.0 mm
05:35 PM 36.8°F2.7°C 25.8°F-3.4°C 64% 7.0 mph NW11.3 kmh NW 9.0 mph14.5 kmh 29.67 in1004.7 mb 0.00 in0.0 mm 0.00 in0.0 mm 0.00 in0.0 mm
05:40 PM 36.7°F2.6°C 25.7°F-3.5°C 64% 5.0 mph WNW8.0 kmh WNW 11.0 mph17.7 kmh 29.67 in1004.7 mb 0.00 in0.0 mm 0.00 in0.0 mm 0.00 in0.0 mm
05:45 PM 36.6°F2.6°C 26.0°F-3.3°C 65% 5.0 mph NW8.0 kmh NW 11.0 mph17.7 kmh 29.68 in1005.1 mb 0.00 in0.0 mm 0.00 in0.0 mm 0.00 in0.0 mm
05:50 PM 36.6°F2.6°C 25.6°F-3.6°C 64% 3.0 mph NW4.8 kmh NW 8.0 mph12.9 kmh 29.68 in1005.1 mb 0.00 in0.0 mm 0.00 in0.0 mm 0.00 in0.0 mm
05:55 PM 36.5°F2.5°C 25.9°F-3.4°C 65% 5.0 mph WNW8.0 kmh WNW 9.0 mph14.5 kmh 29.68 in1005.1 mb 0.00 in0.0 mm 0.00 in0.0 mm 0.00 in0.0 mm
06:05 PM 36.3°F2.4°C 25.3°F-3.7°C 64% 4.0 mph WNW6.4 kmh WNW 10.0 mph16.1 kmh 29.68 in1005.1 mb 0.00 in0.0 mm 0.00 in0.0 mm 0.00 in0.0 mm
06:10 PM 36.2°F2.3°C 24.8°F-4.0°C 63% 7.0 mph WNW11.3 kmh WNW 10.0 mph16.1 kmh 29.69 in1005.4 mb 0.00 in0.0 mm 0.00 in0.0 mm 0.00 in0.0 mm
06:15 PM 36.1°F2.3°C 25.1°F-3.8°C 64% 4.0 mph NW6.4 kmh NW 12.0 mph19.3 kmh 29.69 in1005.4 mb 0.00 in0.0 mm 0.00 in0.0 mm 0.00 in0.0 mm
06:20 PM 35.9°F2.2°C 24.9°F-3.9°C 64% 4.0 mph NW6.4 kmh NW 9.0 mph14.5 kmh 29.69 in1005.4 mb 0.00 in0.0 mm 0.00 in0.0 mm 0.00 in0.0 mm
06:25 PM 35.7°F2.1°C 25.1°F-3.8°C 65% 3.0 mph WNW4.8 kmh WNW 9.0 mph14.5 kmh 29.69 in1005.4 mb 0.00 in0.0 mm 0.00 in0.0 mm 0.00 in0.0 mm
06:30 PM 35.6°F2.0°C 25.4°F-3.7°C 66% 6.0 mph WNW9.7 kmh WNW 9.0 mph14.5 kmh 29.70 in1005.8 mb 0.00 in0.0 mm 0.00 in0.0 mm 0.00 in0.0 mm
06:35 PM 35.5°F1.9°C 24.9°F-3.9°C 65% 5.0 mph NW8.0 kmh NW 8.0 mph12.9 kmh 29.70 in1005.8 mb 0.00 in0.0 mm 0.00 in0.0 mm 0.00 in0.0 mm
06:40 PM 35.4°F1.9°C 24.8°F-4.0°C 65% 6.0 mph NW9.7 kmh NW 8.0 mph12.9 kmh 29.70 in1005.8 mb 0.00 in0.0 mm 0.00 in0.0 mm 0.00 in0.0 mm
06:45 PM 35.3°F1.8°C 24.7°F-4.1°C 65% 5.0 mph NW8.0 kmh NW 8.0 mph12.9 kmh 29.70 in1005.8 mb 0.00 in0.0 mm 0.00 in0.0 mm 0.00 in0.0 mm
06:50 PM 35.2°F1.8°C 25.0°F-3.9°C 66% 3.0 mph NW4.8 kmh NW 7.0 mph11.3 kmh 29.70 in1005.8 mb 0.00 in0.0 mm 0.00 in0.0 mm 0.00 in0.0 mm
06:55 PM 35.0°F1.7°C 24.8°F-4.0°C 66% 4.0 mph NW6.4 kmh NW 7.0 mph11.3 kmh 29.71 in1006.1 mb 0.00 in0.0 mm 0.00 in0.0 mm 0.00 in0.0 mm
07:00 PM 34.8°F1.6°C 24.3°F-4.3°C 65% 3.0 mph NW4.8 kmh NW 8.0 mph12.9 kmh 29.71 in1006.1 mb 0.00 in0.0 mm 0.00 in0.0 mm 0.00 in0.0 mm
07:05 PM 34.5°F1.4°C 24.3°F-4.3°C 66% 6.0 mph WNW9.7 kmh WNW 9.0 mph14.5 kmh 29.71 in1006.1 mb 0.00 in0.0 mm 0.00 in0.0 mm 0.00 in0.0 mm
07:10 PM 34.4°F1.3°C 24.2°F-4.3°C 66% 3.0 mph WNW4.8 kmh WNW 9.0 mph14.5 kmh 29.72 in1006.4 mb 0.00 in0.0 mm 0.00 in0.0 mm 0.00 in0.0 mm
07:15 PM 34.1°F1.2°C 24.7°F-4.1°C 68% 5.0 mph NW8.0 kmh NW 9.0 mph14.5 kmh 29.72 in1006.4 mb 0.00 in0.0 mm 0.00 in0.0 mm 0.00 in0.0 mm
07:20 PM 33.9°F1.1°C 24.5°F-4.2°C 68% 3.0 mph NW4.8 kmh NW 6.0 mph9.7 kmh 29.72 in1006.4 mb 0.00 in0.0 mm 0.00 in0.0 mm 0.00 in0.0 mm
07:25 PM 33.6°F0.9°C 24.5°F-4.2°C 69% 2.0 mph WNW3.2 kmh WNW 7.0 mph11.3 kmh 29.72 in1006.4 mb 0.00 in0.0 mm 0.00 in0.0 mm 0.00 in0.0 mm
07:30 PM 33.4°F0.8°C 24.7°F-4.1°C 70% 3.0 mph NW4.8 kmh NW 7.0 mph11.3 kmh 29.72 in1006.4 mb 0.00 in0.0 mm 0.00 in0.0 mm 0.00 in0.0 mm
07:35 PM 33.2°F0.7°C 24.8°F-4.0°C 71% 3.0 mph NW4.8 kmh NW 7.0 mph11.3 kmh 29.72 in1006.4 mb 0.00 in0.0 mm 0.00 in0.0 mm 0.00 in0.0 mm
07:40 PM 33.1°F0.6°C 25.1°F-3.8°C 72% 5.0 mph NW8.0 kmh NW 7.0 mph11.3 kmh 29.72 in1006.4 mb 0.00 in0.0 mm 0.00 in0.0 mm 0.00 in0.0 mm
07:45 PM 33.0°F0.6°C 25.3°F-3.7°C 73% 5.0 mph NW8.0 kmh NW 7.0 mph11.3 kmh 29.72 in1006.4 mb 0.00 in0.0 mm 0.00 in0.0 mm 0.00 in0.0 mm
07:50 PM 32.8°F0.4°C 25.8°F-3.4°C 75% 4.0 mph NW6.4 kmh NW 6.0 mph9.7 kmh 29.72 in1006.4 mb 0.00 in0.0 mm 0.00 in0.0 mm 0.00 in0.0 mm
07:55 PM 32.6°F0.3°C 25.9°F-3.4°C 76% 4.0 mph NW6.4 kmh NW 6.0 mph9.7 kmh 29.72 in1006.4 mb 0.00 in0.0 mm 0.00 in0.0 mm 0.00 in0.0 mm
08:00 PM 32.4°F0.2°C 25.7°F-3.5°C 76% 3.0 mph NW4.8 kmh NW 6.0 mph9.7 kmh 29.73 in1006.8 mb 0.00 in0.0 mm 0.00 in0.0 mm 0.00 in0.0 mm
08:05 PM 32.2°F0.1°C 25.8°F-3.4°C 77% 2.0 mph NW3.2 kmh NW 3.0 mph4.8 kmh 29.73 in1006.8 mb 0.00 in0.0 mm 0.00 in0.0 mm 0.00 in0.0 mm
08:10 PM 32.2°F0.1°C 26.1°F-3.3°C 78% 2.0 mph NW3.2 kmh NW 4.0 mph6.4 kmh 29.73 in1006.8 mb 0.00 in0.0 mm 0.00 in0.0 mm 0.00 in0.0 mm
08:15 PM 32.0°F0.0°C 26.2°F-3.2°C 79% 3.0 mph NW4.8 kmh NW 5.0 mph8.0 kmh 29.73 in1006.8 mb 0.00 in0.0 mm 0.00 in0.0 mm 0.00 in0.0 mm
08:20 PM 32.0°F0.0°C 26.2°F-3.2°C 79% 1.0 mph NW1.6 kmh NW 4.0 mph6.4 kmh 29.73 in1006.8 mb 0.00 in0.0 mm 0.00 in0.0 mm 0.00 in0.0 mm
08:25 PM 32.0°F0.0°C 25.9°F-3.4°C 78% 4.0 mph NNW6.4 kmh NNW 6.0 mph9.7 kmh 29.73 in1006.8 mb 0.00 in0.0 mm 0.00 in0.0 mm 0.00 in0.0 mm
08:30 PM 32.0°F0.0°C 25.9°F-3.4°C 78% 3.0 mph NW4.8 kmh NW 6.0 mph9.7 kmh 29.73 in1006.8 mb 0.00 in0.0 mm 0.00 in0.0 mm 0.00 in0.0 mm
08:35 PM 32.0°F0.0°C 25.9°F-3.4°C 78% 4.0 mph NW6.4 kmh NW 5.0 mph8.0 kmh 29.73 in1006.8 mb 0.00 in0.0 mm 0.00 in0.0 mm 0.00 in0.0 mm
08:40 PM 31.9°F-0.1°C 25.8°F-3.4°C 78% 3.0 mph NW4.8 kmh NW 5.0 mph8.0 kmh 29.73 in1006.8 mb 0.00 in0.0 mm 0.00 in0.0 mm 0.00 in0.0 mm
08:45 PM 31.8°F-0.1°C 25.7°F-3.5°C 78% 3.0 mph WNW4.8 kmh WNW 5.0 mph8.0 kmh 29.73 in1006.8 mb 0.00 in0.0 mm 0.00 in0.0 mm 0.00 in0.0 mm
08:50 PM 31.6°F-0.2°C 25.5°F-3.6°C 78% 3.0 mph WNW4.8 kmh WNW 4.0 mph6.4 kmh 29.73 in1006.8 mb 0.00 in0.0 mm 0.00 in0.0 mm 0.00 in0.0 mm
08:55 PM 31.5°F-0.3°C 25.8°F-3.4°C 79% 3.0 mph NW4.8 kmh NW 6.0 mph9.7 kmh 29.74 in1007.1 mb 0.00 in0.0 mm 0.00 in0.0 mm 0.00 in0.0 mm
09:00 PM 31.3°F-0.4°C 25.6°F-3.6°C 79% 2.0 mph NW3.2 kmh NW 6.0 mph9.7 kmh 29.74 in1007.1 mb 0.00 in0.0 mm 0.00 in0.0 mm 0.00 in0.0 mm
09:05 PM 31.3°F-0.4°C 25.6°F-3.6°C 79% 2.0 mph NW3.2 kmh NW 4.0 mph6.4 kmh 29.74 in1007.1 mb 0.00 in0.0 mm 0.00 in0.0 mm 0.00 in0.0 mm
09:10 PM 31.2°F-0.4°C 25.5°F-3.6°C 79% 2.0 mph NW3.2 kmh NW 4.0 mph6.4 kmh 29.74 in1007.1 mb 0.00 in0.0 mm 0.00 in0.0 mm 0.00 in0.0 mm
09:15 PM 31.0°F-0.6°C 25.6°F-3.6°C 80% 2.0 mph NW3.2 kmh NW 4.0 mph6.4 kmh 29.74 in1007.1 mb 0.00 in0.0 mm 0.00 in0.0 mm 0.00 in0.0 mm
09:20 PM 30.9°F-0.6°C 25.5°F-3.6°C 80% 3.0 mph NW4.8 kmh NW 3.0 mph4.8 kmh 29.74 in1007.1 mb 0.00 in0.0 mm 0.00 in0.0 mm 0.00 in0.0 mm
09:25 PM 30.7°F-0.7°C 25.3°F-3.7°C 80% Calm Calm 3.0 mph4.8 kmh 29.74 in1007.1 mb 0.00 in0.0 mm 0.00 in0.0 mm 0.00 in0.0 mm
09:30 PM 30.5°F-0.8°C 25.1°F-3.8°C 80% Calm Calm 3.0 mph4.8 kmh 29.74 in1007.1 mb 0.00 in0.0 mm 0.00 in0.0 mm 0.00 in0.0 mm
09:35 PM 30.4°F-0.9°C 25.3°F-3.7°C 81% Calm Calm -- 29.75 in1007.5 mb 0.00 in0.0 mm 0.00 in0.0 mm 0.00 in0.0 mm
09:40 PM 30.4°F-0.9°C 25.3°F-3.7°C 81% 2.0 mph NW3.2 kmh NW 3.0 mph4.8 kmh 29.75 in1007.5 mb 0.00 in0.0 mm 0.00 in0.0 mm 0.00 in0.0 mm
09:45 PM 30.4°F-0.9°C 25.3°F-3.7°C 81% 2.0 mph NW3.2 kmh NW 3.0 mph4.8 kmh 29.75 in1007.5 mb 0.00 in0.0 mm 0.00 in0.0 mm 0.00 in0.0 mm
09:50 PM 30.4°F-0.9°C 25.3°F-3.7°C 81% Calm Calm 1.0 mph1.6 kmh 29.75 in1007.5 mb 0.00 in0.0 mm 0.00 in0.0 mm 0.00 in0.0 mm
09:55 PM 30.3°F-0.9°C 25.2°F-3.8°C 81% Calm Calm 3.0 mph4.8 kmh 29.75 in1007.5 mb 0.00 in0.0 mm 0.00 in0.0 mm 0.00 in0.0 mm
10:00 PM 30.1°F-1.1°C 24.7°F-4.1°C 80% Calm Calm 3.0 mph4.8 kmh 29.75 in1007.5 mb 0.00 in0.0 mm 0.00 in0.0 mm 0.00 in0.0 mm
10:05 PM 29.9°F-1.2°C 24.8°F-4.0°C 81% Calm Calm 2.0 mph3.2 kmh 29.75 in1007.5 mb 0.00 in0.0 mm 0.00 in0.0 mm 0.00 in0.0 mm
10:10 PM 29.5°F-1.4°C 24.7°F-4.1°C 82% Calm Calm 2.0 mph3.2 kmh 29.75 in1007.5 mb 0.00 in0.0 mm 0.00 in0.0 mm 0.00 in0.0 mm
10:15 PM 29.5°F-1.4°C 25.0°F-3.9°C 83% 2.0 mph NW3.2 kmh NW 3.0 mph4.8 kmh 29.75 in1007.5 mb 0.00 in0.0 mm 0.00 in0.0 mm 0.00 in0.0 mm
10:20 PM 29.6°F-1.3°C 24.8°F-4.0°C 82% 1.0 mph NW1.6 kmh NW 3.0 mph4.8 kmh 29.75 in1007.5 mb 0.00 in0.0 mm 0.00 in0.0 mm 0.00 in0.0 mm
10:25 PM 29.8°F-1.2°C 24.7°F-4.1°C 81% 1.0 mph W1.6 kmh W 4.0 mph6.4 kmh 29.75 in1007.5 mb 0.00 in0.0 mm 0.00 in0.0 mm 0.00 in0.0 mm
10:30 PM 29.8°F-1.2°C 24.7°F-4.1°C 81% 3.0 mph WNW4.8 kmh WNW 5.0 mph8.0 kmh 29.76 in1007.8 mb 0.00 in0.0 mm 0.00 in0.0 mm 0.00 in0.0 mm
10:35 PM 29.8°F-1.2°C 24.4°F-4.2°C 80% 3.0 mph W4.8 kmh W 6.0 mph9.7 kmh 29.76 in1007.8 mb 0.00 in0.0 mm 0.00 in0.0 mm 0.00 in0.0 mm
10:40 PM 29.9°F-1.2°C 24.5°F-4.2°C 80% 1.0 mph WNW1.6 kmh WNW 6.0 mph9.7 kmh 29.76 in1007.8 mb 0.00 in0.0 mm 0.00 in0.0 mm 0.00 in0.0 mm
10:45 PM 29.8°F-1.2°C 24.4°F-4.2°C 80% 4.0 mph WNW6.4 kmh WNW 6.0 mph9.7 kmh 29.76 in1007.8 mb 0.00 in0.0 mm 0.00 in0.0 mm 0.00 in0.0 mm
10:50 PM 29.8°F-1.2°C 24.4°F-4.2°C 80% Calm Calm 5.0 mph8.0 kmh 29.76 in1007.8 mb 0.00 in0.0 mm 0.00 in0.0 mm 0.00 in0.0 mm
10:55 PM 29.8°F-1.2°C 24.1°F-4.4°C 79% 2.0 mph WNW3.2 kmh WNW 6.0 mph9.7 kmh 29.76 in1007.8 mb 0.00 in0.0 mm 0.00 in0.0 mm 0.00 in0.0 mm
11:00 PM 29.8°F-1.2°C 24.1°F-4.4°C 79% 5.0 mph NW8.0 kmh NW 6.0 mph9.7 kmh 29.76 in1007.8 mb 0.00 in0.0 mm 0.00 in0.0 mm 0.00 in0.0 mm
11:05 PM 29.6°F-1.3°C 23.9°F-4.5°C 79% 4.0 mph WNW6.4 kmh WNW 5.0 mph8.0 kmh 29.76 in1007.8 mb 0.00 in0.0 mm 0.00 in0.0 mm 0.00 in0.0 mm
11:10 PM 29.6°F-1.3°C 24.2°F-4.3°C 80% 2.0 mph WNW3.2 kmh WNW 5.0 mph8.0 kmh 29.76 in1007.8 mb 0.00 in0.0 mm 0.00 in0.0 mm 0.00 in0.0 mm
11:15 PM 29.7°F-1.3°C 24.3°F-4.3°C 80% 2.0 mph WNW3.2 kmh WNW 5.0 mph8.0 kmh 29.77 in1008.1 mb 0.00 in0.0 mm 0.00 in0.0 mm 0.00 in0.0 mm
11:20 PM 29.8°F-1.2°C 24.4°F-4.2°C 80% 2.0 mph WNW3.2 kmh WNW 2.0 mph3.2 kmh 29.77 in1008.1 mb 0.00 in0.0 mm 0.00 in0.0 mm 0.00 in0.0 mm
11:25 PM 30.0°F-1.1°C 24.6°F-4.1°C 80% 2.0 mph WNW3.2 kmh WNW 2.0 mph3.2 kmh 29.77 in1008.1 mb 0.00 in0.0 mm 0.00 in0.0 mm 0.00 in0.0 mm
11:30 PM 30.1°F-1.1°C 24.7°F-4.1°C 80% 2.0 mph WNW3.2 kmh WNW 2.0 mph3.2 kmh 29.77 in1008.1 mb 0.00 in0.0 mm 0.00 in0.0 mm 0.00 in0.0 mm
11:35 PM 30.2°F-1.0°C 25.1°F-3.8°C 81% 4.0 mph WNW6.4 kmh WNW 4.0 mph6.4 kmh 29.77 in1008.1 mb 0.00 in0.0 mm 0.00 in0.0 mm 0.00 in0.0 mm
11:40 PM 30.2°F-1.0°C 24.8°F-4.0°C 80% 4.0 mph NW6.4 kmh NW 8.0 mph12.9 kmh 29.77 in1008.1 mb 0.00 in0.0 mm 0.00 in0.0 mm 0.00 in0.0 mm
11:45 PM 30.3°F-0.9°C 24.9°F-3.9°C 80% 4.0 mph WNW6.4 kmh WNW 8.0 mph12.9 kmh 29.78 in1008.5 mb 0.00 in0.0 mm 0.00 in0.0 mm 0.00 in0.0 mm
11:50 PM 30.3°F-0.9°C 24.9°F-3.9°C 80% 4.0 mph NW6.4 kmh NW 6.0 mph9.7 kmh 29.78 in1008.5 mb 0.00 in0.0 mm 0.00 in0.0 mm 0.00 in0.0 mm
11:55 PM 30.4°F-0.9°C 25.0°F-3.9°C 80% 4.0 mph NW6.4 kmh NW 8.0 mph12.9 kmh 29.78 in1008.5 mb 0.00 in0.0 mm 0.00 in0.0 mm 0.00 in0.0 mm